Time;durP1;ratioP1;P1;durP2;ratioP2;P2;SDS_P1;SDS_P2;PMS_P1;PMS_P2;Temp;Humidity;BMP_temperature;BMP_pressure;BME280_temperature;BME280_humidity;BME280_pressure;Samples;Min_cycle;Max_cycle;Signal;HPM_P1;HPM_P2
2023/12/03 00:01:04;;;;;;;32.03;12.80;;;;;;;;;;5012731;28;20029;-60
2023/12/03 00:03:30;;;;;;;32.00;12.38;;;;;;;;;;5013237;28;20029;-60
2023/12/03 00:05:55;;;;;;;24.35;10.93;;;;;;;;;;5013244;28;20034;-58
2023/12/03 00:08:21;;;;;;;35.92;15.65;;;;;;;;;;5013202;28;20026;-60
2023/12/03 00:10:46;;;;;;;37.15;15.70;;;;;;;;;;5013087;28;20053;-60
2023/12/03 00:13:11;;;;;;;28.48;12.55;;;;;;;;;;5012525;28;20037;-58
2023/12/03 00:15:37;;;;;;;32.90;13.90;;;;;;;;;;5012994;28;20026;-58
2023/12/03 00:18:02;;;;;;;35.28;15.23;;;;;;;;;;5012737;28;20365;-59
2023/12/03 00:20:27;;;;;;;33.42;13.82;;;;;;;;;;5013455;28;20069;-60
2023/12/03 00:22:53;;;;;;;35.10;15.40;;;;;;;;;;5012966;28;20029;-61
2023/12/03 00:25:19;;;;;;;35.17;14.90;;;;;;;;;;5012920;28;20112;-57
2023/12/03 00:27:44;;;;;;;27.65;12.68;;;;;;;;;;5028717;28;20036;-60
2023/12/03 00:30:10;;;;;;;33.67;15.50;;;;;;;;;;5012199;28;20026;-58
2023/12/03 00:32:35;;;;;;;33.45;14.90;;;;;;;;;;5012851;28;20037;-60
2023/12/03 00:35:01;;;;;;;24.48;10.65;;;;;;;;;;5013848;28;20081;-59
2023/12/03 00:37:27;;;;;;;34.25;14.18;;;;;;;;;;5013006;28;20041;-60
2023/12/03 00:39:52;;;;;;;33.40;15.38;;;;;;;;;;5012647;28;20030;-60
2023/12/03 00:42:17;;;;;;;29.20;11.80;;;;;;;;;;5012122;28;20084;-61
2023/12/03 00:44:43;;;;;;;31.80;14.02;;;;;;;;;;5013963;28;20080;-60
2023/12/03 00:47:08;;;;;;;35.33;15.18;;;;;;;;;;5012080;28;20036;-58
2023/12/03 00:49:33;;;;;;;25.02;11.20;;;;;;;;;;5012732;28;20084;-60
2023/12/03 00:51:59;;;;;;;31.75;13.02;;;;;;;;;;5011717;28;20026;-58
2023/12/03 00:54:24;;;;;;;27.40;10.07;;;;;;;;;;5023125;28;20034;-59
2023/12/03 00:56:50;;;;;;;33.78;14.18;;;;;;;;;;5032364;28;20026;-58
2023/12/03 00:59:15;;;;;;;30.02;14.05;;;;;;;;;;5029026;28;20155;-60
2023/12/03 01:01:40;;;;;;;23.85;11.77;;;;;;;;;;5012662;28;20057;-58
2023/12/03 01:04:06;;;;;;;23.08;11.25;;;;;;;;;;5026812;28;20062;-59
2023/12/03 01:06:31;;;;;;;30.92;14.15;;;;;;;;;;5012403;28;20082;-58
2023/12/03 01:08:56;;;;;;;27.73;10.98;;;;;;;;;;5011735;28;20034;-58
2023/12/03 01:11:22;;;;;;;28.30;11.77;;;;;;;;;;5012836;28;20034;-58
2023/12/03 01:13:47;;;;;;;36.78;14.73;;;;;;;;;;5012757;28;20104;-58
2023/12/03 01:16:17;;;;;;;29.85;13.68;;;;;;;;;;5026600;28;20026;-59
2023/12/03 01:18:43;;;;;;;25.27;10.52;;;;;;;;;;5012076;28;20033;-59
2023/12/03 01:21:08;;;;;;;22.88;9.85;;;;;;;;;;5011448;28;20038;-59
2023/12/03 01:23:34;;;;;;;24.80;11.95;;;;;;;;;;5011957;28;20080;-58
2023/12/03 01:26:00;;;;;;;31.60;13.25;;;;;;;;;;5011553;28;20372;-57
2023/12/03 01:28:25;;;;;;;27.20;11.68;;;;;;;;;;5012789;28;20046;-58
2023/12/03 01:30:50;;;;;;;25.30;10.75;;;;;;;;;;5031835;28;20022;-59
2023/12/03 01:33:16;;;;;;;33.47;14.00;;;;;;;;;;5030846;28;20684;-58
2023/12/03 01:35:41;;;;;;;23.50;10.50;;;;;;;;;;5031808;28;20030;-54
2023/12/03 01:38:07;;;;;;;27.60;12.38;;;;;;;;;;5030479;28;20026;-58
2023/12/03 01:40:32;;;;;;;29.70;13.27;;;;;;;;;;5031441;28;20116;-59
2023/12/03 01:42:58;;;;;;;24.48;10.05;;;;;;;;;;5030917;28;20036;-58
2023/12/03 01:45:23;;;;;;;32.75;14.13;;;;;;;;;;5012757;28;20083;-59
2023/12/03 01:47:48;;;;;;;23.65;10.60;;;;;;;;;;5011922;28;20034;-59
2023/12/03 01:50:14;;;;;;;20.90;9.07;;;;;;;;;;5025980;28;20034;-59
2023/12/03 01:52:41;;;;;;;34.97;14.20;;;;;;;;;;5011817;28;20049;-59
2023/12/03 01:55:10;;;;;;;21.58;9.57;;;;;;;;;;5011916;28;20494;-58
2023/12/03 01:57:35;;;;;;;31.17;13.68;;;;;;;;;;5011480;28;20036;-57
2023/12/03 02:00:03;;;;;;;24.88;11.57;;;;;;;;;;5010807;28;20033;-59
2023/12/03 02:02:28;;;;;;;26.23;11.70;;;;;;;;;;5011555;28;20076;-59
2023/12/03 02:04:53;;;;;;;33.05;13.40;;;;;;;;;;5011771;28;20033;-59
2023/12/03 02:07:19;;;;;;;29.02;13.38;;;;;;;;;;5010792;28;20026;-58
2023/12/03 02:09:45;;;;;;;43.70;16.77;;;;;;;;;;5012213;28;20038;-57
2023/12/03 02:12:10;;;;;;;39.08;15.32;;;;;;;;;;5013548;28;20061;-59
2023/12/03 02:14:36;;;;;;;34.35;14.85;;;;;;;;;;5015706;28;20064;-58
2023/12/03 02:17:02;;;;;;;40.35;15.30;;;;;;;;;;5014934;28;20034;-58
2023/12/03 02:19:27;;;;;;;39.90;15.23;;;;;;;;;;5015263;28;20046;-59
2023/12/03 02:21:53;;;;;;;39.53;15.73;;;;;;;;;;5019110;28;20037;-59
2023/12/03 02:24:18;;;;;;;40.67;16.55;;;;;;;;;;5028165;28;20036;-59
2023/12/03 02:26:43;;;;;;;36.80;15.13;;;;;;;;;;5030899;28;20037;-59
2023/12/03 02:29:09;;;;;;;33.75;13.65;;;;;;;;;;5034089;28;20029;-60
2023/12/03 02:31:34;;;;;;;38.90;16.52;;;;;;;;;;5020377;28;20037;-59
2023/12/03 02:34:09;;;;;;;34.10;14.18;;;;;;;;;;5015050;28;20393;-58
2023/12/03 02:36:34;;;;;;;43.88;16.77;;;;;;;;;;5014940;28;20034;-59
2023/12/03 02:39:00;;;;;;;36.30;14.32;;;;;;;;;;5026829;28;20167;-60
2023/12/03 02:41:25;;;;;;;37.92;15.30;;;;;;;;;;5014992;28;20037;-58
2023/12/03 02:43:51;;;;;;;38.08;14.65;;;;;;;;;;5015244;28;20061;-59
2023/12/03 02:46:16;;;;;;;45.45;17.35;;;;;;;;;;5033646;28;20037;-59
2023/12/03 02:48:41;;;;;;;46.83;17.48;;;;;;;;;;5025262;28;20033;-59
2023/12/03 02:51:07;;;;;;;37.53;13.80;;;;;;;;;;5023079;28;20455;-60
2023/12/03 02:53:36;;;;;;;28.90;12.85;;;;;;;;;;5052208;28;20483;-59
2023/12/03 02:56:01;;;;;;;36.40;14.35;;;;;;;;;;5040139;28;20442;-60
2023/12/03 02:58:27;;;;;;;50.30;18.83;;;;;;;;;;5042377;28;20033;-60
2023/12/03 03:00:53;;;;;;;47.97;17.60;;;;;;;;;;5049937;28;20051;-61
2023/12/03 03:03:18;;;;;;;46.10;17.02;;;;;;;;;;5043678;28;20415;-60
2023/12/03 03:05:43;;;;;;;22.67;10.43;;;;;;;;;;5047391;28;20044;-60
2023/12/03 03:08:09;;;;;;;42.63;15.63;;;;;;;;;;5051372;28;20059;-59
2023/12/03 03:10:34;;;;;;;44.67;15.93;;;;;;;;;;5054273;28;20028;-60
2023/12/03 03:13:00;;;;;;;35.55;13.45;;;;;;;;;;5045804;28;20137;-60
2023/12/03 03:15:26;;;;;;;43.15;16.67;;;;;;;;;;5046720;28;20037;-59
2023/12/03 03:17:51;;;;;;;36.15;14.60;;;;;;;;;;5048677;28;20128;-60
2023/12/03 03:20:21;;;;;;;48.10;17.67;;;;;;;;;;5034209;28;20073;-60
2023/12/03 03:22:47;;;;;;;41.88;16.73;;;;;;;;;;5042412;28;20033;-60
2023/12/03 03:25:12;;;;;;;51.20;18.33;;;;;;;;;;5050677;28;20029;-60
2023/12/03 03:27:37;;;;;;;49.95;18.17;;;;;;;;;;5048188;28;20032;-60
2023/12/03 03:30:04;;;;;;;44.78;18.75;;;;;;;;;;5042657;28;20083;-60
2023/12/03 03:32:29;;;;;;;35.58;12.32;;;;;;;;;;5045663;28;20061;-60
2023/12/03 03:34:54;;;;;;;45.40;18.80;;;;;;;;;;5039249;28;20062;-60
2023/12/03 03:37:20;;;;;;;54.30;19.65;;;;;;;;;;5053069;28;20391;-60
2023/12/03 03:39:45;;;;;;;57.17;21.83;;;;;;;;;;5050723;28;20086;-60
2023/12/03 03:42:11;;;;;;;43.03;17.15;;;;;;;;;;5052759;28;20032;-60
2023/12/03 03:44:37;;;;;;;38.90;14.93;;;;;;;;;;5051169;28;20029;-60
2023/12/03 03:47:03;;;;;;;41.72;17.38;;;;;;;;;;5044383;28;20493;-60
2023/12/03 03:49:29;;;;;;;33.33;15.18;;;;;;;;;;5049452;28;20116;-60
2023/12/03 03:51:55;;;;;;;43.92;17.95;;;;;;;;;;5042519;28;20029;-59
2023/12/03 03:54:20;;;;;;;46.40;19.33;;;;;;;;;;5050143;28;20468;-60
2023/12/03 03:56:49;;;;;;;33.70;15.38;;;;;;;;;;5046515;28;20024;-60
2023/12/03 03:59:14;;;;;;;43.45;18.10;;;;;;;;;;5049944;28;20032;-60
2023/12/03 04:01:44;;;;;;;41.63;17.17;;;;;;;;;;5043740;28;20477;-60
2023/12/03 04:04:10;;;;;;;47.65;18.60;;;;;;;;;;5034253;28;20045;-60
2023/12/03 04:06:39;;;;;;;45.00;19.40;;;;;;;;;;5049119;28;20025;-60
2023/12/03 04:09:04;;;;;;;49.55;18.40;;;;;;;;;;5042523;28;20494;-60
2023/12/03 04:11:30;;;;;;;30.90;13.68;;;;;;;;;;5049763;28;20032;-61
2023/12/03 04:13:55;;;;;;;52.22;18.75;;;;;;;;;;5053217;28;20037;-60
2023/12/03 04:16:22;;;;;;;50.55;19.60;;;;;;;;;;5048272;28;20064;-61
2023/12/03 04:18:47;;;;;;;37.58;16.92;;;;;;;;;;5045510;28;20037;-61
2023/12/03 04:21:15;;;;;;;35.17;13.57;;;;;;;;;;5034108;28;20453;-61
2023/12/03 04:23:40;;;;;;;48.97;16.63;;;;;;;;;;5044740;28;20075;-61
2023/12/03 04:26:07;;;;;;;39.13;15.90;;;;;;;;;;5049121;28;20061;-60
2023/12/03 04:28:33;;;;;;;56.90;20.95;;;;;;;;;;5037553;28;20025;-60
2023/12/03 04:30:58;;;;;;;57.90;21.95;;;;;;;;;;5045556;28;20037;-60
2023/12/03 04:33:24;;;;;;;41.88;18.20;;;;;;;;;;5045756;28;20113;-60
2023/12/03 04:35:50;;;;;;;46.15;18.52;;;;;;;;;;5041521;28;20029;-59
2023/12/03 04:38:15;;;;;;;46.55;17.83;;;;;;;;;;5050559;28;20036;-60
2023/12/03 04:40:40;;;;;;;48.03;19.90;;;;;;;;;;5040987;28;20033;-59
2023/12/03 04:43:06;;;;;;;58.67;22.35;;;;;;;;;;5052675;28;20116;-60
2023/12/03 04:45:31;;;;;;;43.67;16.95;;;;;;;;;;5049095;28;20037;-60
2023/12/03 04:47:56;;;;;;;39.90;14.82;;;;;;;;;;5052594;28;20033;-60
2023/12/03 04:50:22;;;;;;;30.35;13.40;;;;;;;;;;5043824;28;20048;-59
2023/12/03 04:52:47;;;;;;;44.17;18.67;;;;;;;;;;5037790;28;20379;-60
2023/12/03 04:55:13;;;;;;;49.75;19.85;;;;;;;;;;5047084;28;20040;-60
2023/12/03 04:57:38;;;;;;;41.95;17.67;;;;;;;;;;5042950;28;20374;-61
2023/12/03 05:00:04;;;;;;;42.33;18.15;;;;;;;;;;5052376;28;20394;-60
2023/12/03 05:02:29;;;;;;;28.98;13.18;;;;;;;;;;5036922;28;20022;-60
2023/12/03 05:04:55;;;;;;;42.25;16.20;;;;;;;;;;5029158;28;20369;-61
2023/12/03 05:07:20;;;;;;;33.55;14.63;;;;;;;;;;5040568;28;20040;-60
2023/12/03 05:09:45;;;;;;;37.95;15.77;;;;;;;;;;5051983;28;20025;-60
2023/12/03 05:12:11;;;;;;;26.40;13.00;;;;;;;;;;5046448;28;20041;-61
2023/12/03 05:14:37;;;;;;;40.50;15.18;;;;;;;;;;5035915;28;20460;-61
2023/12/03 05:17:02;;;;;;;42.03;16.80;;;;;;;;;;5019511;28;20037;-61
2023/12/03 05:19:28;;;;;;;43.30;17.50;;;;;;;;;;5010962;28;20072;-61
2023/12/03 05:21:53;;;;;;;37.75;15.23;;;;;;;;;;5035264;28;20124;-61
2023/12/03 05:24:19;;;;;;;35.58;14.30;;;;;;;;;;5032929;28;20088;-61
2023/12/03 05:26:44;;;;;;;37.60;16.95;;;;;;;;;;5047547;28;20480;-60
2023/12/03 05:29:09;;;;;;;39.28;15.02;;;;;;;;;;5028211;28;20034;-60
2023/12/03 05:31:35;;;;;;;37.55;16.45;;;;;;;;;;5040842;28;20047;-60
2023/12/03 05:34:00;;;;;;;26.90;9.90;;;;;;;;;;5036250;28;20037;-60
2023/12/03 05:36:25;;;;;;;35.03;14.73;;;;;;;;;;5030640;28;20029;-60
2023/12/03 05:38:52;;;;;;;32.65;13.45;;;;;;;;;;5049408;28;20485;-59
2023/12/03 05:41:18;;;;;;;36.38;15.40;;;;;;;;;;5039068;28;20053;-60
2023/12/03 05:43:43;;;;;;;34.30;12.85;;;;;;;;;;5040738;28;20071;-60
2023/12/03 05:46:09;;;;;;;35.92;14.80;;;;;;;;;;5040861;28;20025;-61
2023/12/03 05:48:34;;;;;;;35.08;13.15;;;;;;;;;;5051063;28;20094;-60
2023/12/03 05:50:59;;;;;;;30.55;12.75;;;;;;;;;;5032184;28;20451;-59
2023/12/03 05:53:25;;;;;;;32.33;14.05;;;;;;;;;;5043450;28;20033;-59
2023/12/03 05:55:50;;;;;;;34.08;13.68;;;;;;;;;;5049476;28;20368;-60
2023/12/03 05:58:15;;;;;;;28.67;12.13;;;;;;;;;;5046975;28;20025;-60
2023/12/03 06:00:41;;;;;;;32.85;13.15;;;;;;;;;;5047851;28;20073;-61
2023/12/03 06:03:06;;;;;;;25.63;10.77;;;;;;;;;;5028346;28;20030;-61
2023/12/03 06:05:31;;;;;;;28.75;12.65;;;;;;;;;;5021564;28;20116;-61
2023/12/03 06:07:57;;;;;;;28.95;11.60;;;;;;;;;;5047375;28;20041;-60
2023/12/03 06:10:23;;;;;;;30.05;13.18;;;;;;;;;;5040579;28;20391;-60
2023/12/03 06:12:49;;;;;;;32.60;12.35;;;;;;;;;;5034228;28;20039;-61
2023/12/03 06:15:14;;;;;;;20.20;9.60;;;;;;;;;;5032534;28;20441;-60
2023/12/03 06:17:39;;;;;;;12.82;6.38;;;;;;;;;;5048259;28;20025;-59
2023/12/03 06:20:05;;;;;;;22.48;10.02;;;;;;;;;;5048608;28;20128;-61
2023/12/03 06:22:31;;;;;;;36.05;14.05;;;;;;;;;;5039524;28;20055;-61
2023/12/03 06:24:56;;;;;;;31.02;14.10;;;;;;;;;;5017016;28;20452;-61
2023/12/03 06:27:21;;;;;;;30.95;12.90;;;;;;;;;;5037393;28;20055;-61
2023/12/03 06:29:47;;;;;;;32.42;13.45;;;;;;;;;;5019456;28;20038;-59
2023/12/03 06:32:12;;;;;;;31.73;12.40;;;;;;;;;;5015600;28;20520;-59
2023/12/03 06:34:38;;;;;;;33.72;14.68;;;;;;;;;;5010348;28;20037;-57
2023/12/03 06:37:04;;;;;;;28.55;11.40;;;;;;;;;;5012281;28;20032;-60
2023/12/03 06:39:30;;;;;;;46.70;16.73;;;;;;;;;;5010567;28;20124;-59
2023/12/03 06:41:55;;;;;;;46.83;15.10;;;;;;;;;;5011279;28;20104;-59
2023/12/03 06:44:20;;;;;;;43.85;15.43;;;;;;;;;;5009221;28;20065;-60
2023/12/03 06:46:46;;;;;;;32.80;12.50;;;;;;;;;;5013523;28;20353;-60
2023/12/03 06:49:11;;;;;;;35.53;14.80;;;;;;;;;;5031315;28;20448;-59
2023/12/03 06:51:37;;;;;;;31.60;13.23;;;;;;;;;;5028983;28;20022;-60
2023/12/03 06:54:03;;;;;;;33.92;13.65;;;;;;;;;;5030294;28;20029;-59
2023/12/03 06:56:28;;;;;;;26.73;12.65;;;;;;;;;;5030095;28;20030;-59
2023/12/03 06:58:55;;;;;;;25.00;11.48;;;;;;;;;;5013423;28;20115;-59
2023/12/03 07:01:20;;;;;;;26.42;11.70;;;;;;;;;;5014245;28;20033;-61
2023/12/03 07:03:46;;;;;;;27.75;11.82;;;;;;;;;;5015151;28;20041;-61
2023/12/03 07:06:12;;;;;;;29.58;12.45;;;;;;;;;;5014975;28;20033;-61
2023/12/03 07:08:37;;;;;;;27.98;11.38;;;;;;;;;;5018131;28;20105;-60
2023/12/03 07:11:03;;;;;;;25.40;11.48;;;;;;;;;;5015348;28;20155;-60
2023/12/03 07:13:28;;;;;;;26.83;11.80;;;;;;;;;;5013788;28;20113;-60
2023/12/03 07:15:53;;;;;;;16.88;8.43;;;;;;;;;;5046340;28;20034;-59
2023/12/03 07:18:19;;;;;;;21.70;10.30;;;;;;;;;;5014222;28;20385;-59
2023/12/03 07:20:44;;;;;;;23.40;9.95;;;;;;;;;;5014938;28;20041;-60
2023/12/03 07:23:10;;;;;;;28.83;11.15;;;;;;;;;;5012889;28;20042;-59
2023/12/03 07:25:36;;;;;;;28.00;12.23;;;;;;;;;;5013755;28;20040;-59
2023/12/03 07:28:01;;;;;;;26.65;11.57;;;;;;;;;;5018110;28;20438;-60
2023/12/03 07:30:27;;;;;;;31.23;13.55;;;;;;;;;;5051721;28;20475;-60
2023/12/03 07:32:52;;;;;;;20.95;9.55;;;;;;;;;;5039352;28;20391;-60
2023/12/03 07:35:17;;;;;;;29.15;11.88;;;;;;;;;;5038101;28;20056;-60
2023/12/03 07:37:43;;;;;;;25.50;11.27;;;;;;;;;;5047529;28;20041;-60
2023/12/03 07:40:09;;;;;;;18.60;9.00;;;;;;;;;;5046672;28;20041;-60
2023/12/03 07:42:35;;;;;;;27.42;11.18;;;;;;;;;;5046308;28;20083;-60
2023/12/03 07:45:00;;;;;;;19.48;7.85;;;;;;;;;;5053974;28;20033;-60
2023/12/03 07:47:26;;;;;;;36.50;14.55;;;;;;;;;;5051571;28;20112;-59
2023/12/03 07:49:52;;;;;;;27.48;11.82;;;;;;;;;;5053763;28;20053;-61
2023/12/03 07:52:19;;;;;;;27.90;12.60;;;;;;;;;;5047746;28;20442;-60
2023/12/03 07:54:44;;;;;;;29.05;10.98;;;;;;;;;;5028902;28;20120;-60
2023/12/03 07:57:10;;;;;;;24.63;11.35;;;;;;;;;;5014012;28;20030;-58
2023/12/03 07:59:35;;;;;;;25.52;10.65;;;;;;;;;;5013181;28;20111;-61
2023/12/03 08:02:01;;;;;;;24.15;10.52;;;;;;;;;;5014381;28;20479;-60
2023/12/03 08:04:27;;;;;;;27.33;11.88;;;;;;;;;;5021038;28;20040;-59
2023/12/03 08:06:52;;;;;;;15.80;8.18;;;;;;;;;;5033417;28;20033;-59
2023/12/03 08:09:17;;;;;;;25.52;10.88;;;;;;;;;;5033012;28;20043;-60
2023/12/03 08:11:43;;;;;;;25.08;10.30;;;;;;;;;;5015984;28;20041;-60
2023/12/03 08:14:08;;;;;;;20.58;8.70;;;;;;;;;;5013596;28;20392;-61
2023/12/03 08:16:33;;;;;;;16.92;8.90;;;;;;;;;;5012744;28;20114;-60
2023/12/03 08:18:59;;;;;;;19.98;9.45;;;;;;;;;;5014355;28;20042;-60
2023/12/03 08:21:24;;;;;;;19.23;8.35;;;;;;;;;;5031709;28;20037;-61
2023/12/03 08:23:50;;;;;;;23.58;9.50;;;;;;;;;;5033225;28;20443;-61
2023/12/03 08:26:15;;;;;;;20.27;9.48;;;;;;;;;;5027639;28;20033;-61
2023/12/03 08:28:40;;;;;;;19.30;9.00;;;;;;;;;;5012511;28;20563;-61
2023/12/03 08:31:07;;;;;;;19.85;8.57;;;;;;;;;;5014857;28;20030;-61
2023/12/03 08:33:33;;;;;;;23.83;10.95;;;;;;;;;;5011107;28;20104;-61
2023/12/03 08:35:58;;;;;;;27.05;11.82;;;;;;;;;;5014117;28;20460;-61
2023/12/03 08:38:24;;;;;;;23.92;10.50;;;;;;;;;;5013194;28;20037;-61
2023/12/03 08:40:50;;;;;;;24.70;10.25;;;;;;;;;;5021627;28;20087;-61
2023/12/03 08:43:15;;;;;;;23.42;8.70;;;;;;;;;;5032823;28;20025;-61
2023/12/03 08:45:41;;;;;;;26.17;11.02;;;;;;;;;;5032045;28;20052;-61
2023/12/03 08:48:06;;;;;;;19.73;9.00;;;;;;;;;;5032957;28;20119;-61
2023/12/03 08:50:32;;;;;;;21.23;10.00;;;;;;;;;;5031372;28;20186;-61
2023/12/03 08:52:58;;;;;;;22.13;9.77;;;;;;;;;;5015227;28;20034;-61
2023/12/03 08:55:23;;;;;;;21.52;9.40;;;;;;;;;;5012319;28;20048;-61
2023/12/03 08:57:49;;;;;;;22.00;10.00;;;;;;;;;;5012236;28;20022;-60
2023/12/03 09:00:15;;;;;;;18.40;9.25;;;;;;;;;;5012514;28;20368;-62
2023/12/03 09:02:46;;;;;;;21.95;9.90;;;;;;;;;;5017605;28;20033;-60
2023/12/03 09:05:12;;;;;;;20.92;9.40;;;;;;;;;;5012794;28;20133;-61
2023/12/03 09:07:38;;;;;;;23.33;10.70;;;;;;;;;;5012139;28;20192;-61
2023/12/03 09:10:05;;;;;;;25.05;10.15;;;;;;;;;;5013046;28;20085;-60
2023/12/03 09:12:30;;;;;;;24.25;10.63;;;;;;;;;;5011467;28;20025;-61
2023/12/03 09:14:56;;;;;;;22.42;10.40;;;;;;;;;;5012809;28;20433;-61
2023/12/03 09:17:21;;;;;;;24.92;10.32;;;;;;;;;;5012548;28;20030;-61
2023/12/03 09:19:47;;;;;;;17.60;8.88;;;;;;;;;;5011365;28;20515;-61
2023/12/03 09:22:12;;;;;;;14.63;7.05;;;;;;;;;;5011752;28;20038;-62
2023/12/03 09:24:37;;;;;;;17.45;8.18;;;;;;;;;;5011678;28;20025;-61
2023/12/03 09:27:03;;;;;;;17.75;7.95;;;;;;;;;;5027568;28;20108;-62
2023/12/03 09:29:28;;;;;;;11.10;5.68;;;;;;;;;;5031144;28;20029;-62
2023/12/03 09:31:54;;;;;;;22.00;9.40;;;;;;;;;;5032046;28;20021;-62
2023/12/03 09:34:19;;;;;;;17.90;8.95;;;;;;;;;;5030291;28;20075;-62
2023/12/03 09:36:44;;;;;;;12.82;6.68;;;;;;;;;;5030895;28;20104;-62
2023/12/03 09:39:10;;;;;;;14.93;7.00;;;;;;;;;;5029927;28;20387;-62
2023/12/03 09:41:46;;;;;;;21.50;8.63;;;;;;;;;;5011126;28;20041;-60
2023/12/03 09:44:31;;;;;;;19.17;7.65;;;;;;;;;;5012043;28;20026;-60
2023/12/03 09:46:57;;;;;;;19.20;9.10;;;;;;;;;;5010876;28;20026;-63
2023/12/03 09:49:23;;;;;;;12.38;6.05;;;;;;;;;;5011761;28;20034;-60
2023/12/03 09:51:49;;;;;;;20.42;7.60;;;;;;;;;;5011106;28;20041;-60
2023/12/03 09:54:15;;;;;;;18.50;9.00;;;;;;;;;;5012244;28;20475;-62
2023/12/03 09:56:43;;;;;;;18.58;9.10;;;;;;;;;;5011005;28;20080;-63
2023/12/03 09:59:10;;;;;;;11.50;5.47;;;;;;;;;;5011832;28;20026;-62
2023/12/03 10:01:38;;;;;;;20.02;7.97;;;;;;;;;;5010827;28;20062;-62
2023/12/03 10:04:04;;;;;;;11.90;6.20;;;;;;;;;;5015163;28;20053;-62
2023/12/03 10:06:33;;;;;;;18.48;8.82;;;;;;;;;;5015801;28;20049;-62
2023/12/03 10:08:59;;;;;;;15.50;7.03;;;;;;;;;;5011571;28;20026;-62
2023/12/03 10:11:27;;;;;;;17.67;8.27;;;;;;;;;;5011959;28;20030;-60
2023/12/03 10:13:56;;;;;;;19.25;8.93;;;;;;;;;;5019626;28;20045;-60
2023/12/03 10:16:22;;;;;;;16.17;7.63;;;;;;;;;;5031306;28;20033;-60
2023/12/03 10:18:49;;;;;;;17.33;7.93;;;;;;;;;;5030316;28;20025;-61
2023/12/03 10:21:15;;;;;;;16.38;8.20;;;;;;;;;;5031259;28;20034;-62
2023/12/03 10:23:40;;;;;;;21.75;8.50;;;;;;;;;;5030210;28;20034;-62
2023/12/03 10:26:10;;;;;;;14.02;6.53;;;;;;;;;;5030941;28;20026;-62
2023/12/03 10:28:35;;;;;;;13.80;6.60;;;;;;;;;;5020668;28;20037;-62
2023/12/03 10:31:01;;;;;;;19.83;7.53;;;;;;;;;;5011961;28;20030;-63
2023/12/03 10:33:26;;;;;;;14.27;6.65;;;;;;;;;;5013089;28;20041;-62
2023/12/03 10:35:52;;;;;;;17.17;7.68;;;;;;;;;;5014687;28;20411;-62
2023/12/03 10:38:17;;;;;;;14.25;6.07;;;;;;;;;;5015472;28;20392;-62
2023/12/03 10:40:46;;;;;;;12.93;6.45;;;;;;;;;;5014436;28;20087;-62
2023/12/03 10:43:12;;;;;;;15.60;6.35;;;;;;;;;;5015584;28;20029;-61
2023/12/03 10:45:37;;;;;;;16.92;7.60;;;;;;;;;;5015317;28;20483;-62
2023/12/03 10:48:04;;;;;;;14.73;7.88;;;;;;;;;;5015866;28;20034;-62
2023/12/03 10:50:30;;;;;;;16.65;8.50;;;;;;;;;;5015097;28;20030;-62
2023/12/03 10:52:58;;;;;;;18.23;8.10;;;;;;;;;;5015075;28;20034;-62
2023/12/03 10:55:24;;;;;;;16.63;7.78;;;;;;;;;;5014622;28;20384;-62
2023/12/03 10:57:58;;;;;;;17.98;7.68;;;;;;;;;;5014206;28;20029;-62
2023/12/03 11:00:29;;;;;;;19.17;8.80;;;;;;;;;;5014773;28;20063;-62
2023/12/03 11:03:07;;;;;;;18.38;8.32;;;;;;;;;;5012920;28;20423;-61
2023/12/03 11:05:40;;;;;;;15.85;6.78;;;;;;;;;;5014170;28;20045;-62
2023/12/03 11:08:07;;;;;;;15.88;7.25;;;;;;;;;;5022639;28;20488;-62
2023/12/03 11:10:32;;;;;;;14.88;7.20;;;;;;;;;;5033822;28;20112;-62
2023/12/03 11:13:00;;;;;;;18.67;7.28;;;;;;;;;;5034021;28;20113;-62
2023/12/03 11:15:26;;;;;;;12.55;6.05;;;;;;;;;;5033960;28;20156;-62
2023/12/03 11:17:51;;;;;;;13.55;6.60;;;;;;;;;;5033627;28;20700;-61
2023/12/03 11:20:22;;;;;;;16.60;8.23;;;;;;;;;;5032817;28;20045;-61
2023/12/03 11:23:09;;;;;;;15.10;7.50;;;;;;;;;;5033026;28;20365;-63
2023/12/03 11:25:40;;;;;;;19.33;8.13;;;;;;;;;;5033269;28;20033;-62
2023/12/03 11:28:07;;;;;;;17.15;8.13;;;;;;;;;;5033918;28;20025;-62
2023/12/03 11:30:40;;;;;;;20.35;9.00;;;;;;;;;;5033703;28;20029;-63
2023/12/03 11:33:10;;;;;;;16.35;8.63;;;;;;;;;;5034326;28;20033;-62
2023/12/03 11:35:35;;;;;;;18.30;8.23;;;;;;;;;;5033053;28;20033;-61
2023/12/03 11:38:01;;;;;;;17.65;8.60;;;;;;;;;;5016301;28;20052;-61
2023/12/03 11:40:34;;;;;;;19.13;8.63;;;;;;;;;;5034009;28;20034;-61
2023/12/03 11:42:59;;;;;;;16.23;8.27;;;;;;;;;;5029392;28;20034;-61
2023/12/03 11:45:27;;;;;;;18.48;9.07;;;;;;;;;;5013439;28;20091;-61
2023/12/03 11:48:01;;;;;;;17.30;8.45;;;;;;;;;;5013350;28;20030;-61
2023/12/03 11:50:29;;;;;;;20.88;9.43;;;;;;;;;;5014016;28;20365;-61
2023/12/03 11:52:55;;;;;;;19.27;9.15;;;;;;;;;;5023203;28;20543;-61
2023/12/03 11:55:22;;;;;;;17.35;8.20;;;;;;;;;;5033629;28;20026;-61
2023/12/03 11:57:48;;;;;;;17.90;8.48;;;;;;;;;;5032877;28;20060;-61
2023/12/03 12:00:14;;;;;;;19.80;9.05;;;;;;;;;;5033456;28;20033;-61
2023/12/03 12:02:39;;;;;;;18.90;9.00;;;;;;;;;;5032752;28;20029;-61
2023/12/03 12:05:05;;;;;;;19.02;9.10;;;;;;;;;;5033328;28;20471;-61
2023/12/03 12:07:31;;;;;;;17.92;8.90;;;;;;;;;;5023230;28;20049;-61
2023/12/03 12:09:56;;;;;;;16.95;8.70;;;;;;;;;;5012817;28;20037;-61
2023/12/03 12:12:22;;;;;;;17.83;9.35;;;;;;;;;;5017731;28;20450;-61
2023/12/03 12:14:49;;;;;;;16.02;8.60;;;;;;;;;;5032491;28;20510;-61
2023/12/03 12:17:14;;;;;;;18.63;9.82;;;;;;;;;;5033271;28;20387;-61
2023/12/03 12:19:49;;;;;;;17.08;8.80;;;;;;;;;;5032123;28;20048;-61
2023/12/03 12:22:16;;;;;;;19.90;9.25;;;;;;;;;;5033313;28;20111;-62
2023/12/03 12:24:42;;;;;;;20.08;9.43;;;;;;;;;;5031987;28;20687;-62
2023/12/03 12:27:07;;;;;;;16.70;8.70;;;;;;;;;;5027930;28;20041;-62
2023/12/03 12:29:34;;;;;;;16.58;8.50;;;;;;;;;;5013288;28;20461;-62
2023/12/03 12:32:00;;;;;;;19.70;8.98;;;;;;;;;;5012663;28;20037;-63
2023/12/03 12:34:25;;;;;;;17.88;8.43;;;;;;;;;;5013030;28;20388;-62
2023/12/03 12:37:07;;;;;;;17.70;8.65;;;;;;;;;;5010662;28;20030;-62
2023/12/03 12:39:33;;;;;;;18.42;9.73;;;;;;;;;;5013147;28;20164;-61
2023/12/03 12:41:59;;;;;;;19.08;8.82;;;;;;;;;;5012261;28;20049;-62
2023/12/03 12:44:44;;;;;;;18.73;9.23;;;;;;;;;;5012842;28;20033;-61
2023/12/03 12:47:11;;;;;;;21.75;10.00;;;;;;;;;;5013764;28;20113;-61
2023/12/03 12:49:40;;;;;;;16.75;9.15;;;;;;;;;;5031140;28;20025;-61
2023/12/03 12:52:12;;;;;;;17.92;9.00;;;;;;;;;;5032625;28;20066;-63
2023/12/03 12:54:45;;;;;;;14.38;8.30;;;;;;;;;;5032147;28;20116;-61
2023/12/03 12:57:11;;;;;;;16.08;8.80;;;;;;;;;;5012392;28;20044;-61
2023/12/03 12:59:37;;;;;;;19.08;9.32;;;;;;;;;;5012509;28;20375;-61
2023/12/03 13:02:03;;;;;;;16.13;8.82;;;;;;;;;;5011131;28;20030;-62
2023/12/03 13:04:28;;;;;;;17.95;9.77;;;;;;;;;;5012752;28;20362;-62
2023/12/03 13:06:53;;;;;;;17.30;9.98;;;;;;;;;;5012037;28;20034;-62
2023/12/03 13:09:19;;;;;;;17.77;9.65;;;;;;;;;;5021090;28;20040;-63
2023/12/03 13:11:44;;;;;;;16.90;10.40;;;;;;;;;;5031624;28;20103;-62
2023/12/03 13:14:10;;;;;;;18.02;10.00;;;;;;;;;;5032363;28;20030;-63
2023/12/03 13:16:35;;;;;;;18.58;11.05;;;;;;;;;;5030822;28;20033;-62
2023/12/03 13:19:00;;;;;;;18.92;11.00;;;;;;;;;;5031238;28;20056;-61
2023/12/03 13:21:26;;;;;;;18.08;10.70;;;;;;;;;;5027276;28;20044;-62
2023/12/03 13:23:51;;;;;;;18.90;11.10;;;;;;;;;;5019155;28;20037;-61
2023/12/03 13:26:17;;;;;;;17.80;10.73;;;;;;;;;;5028385;28;20437;-62
2023/12/03 13:28:44;;;;;;;18.90;10.90;;;;;;;;;;5031019;28;20503;-61
2023/12/03 13:31:09;;;;;;;19.45;10.73;;;;;;;;;;5031892;28;20372;-62
2023/12/03 13:33:35;;;;;;;17.30;10.45;;;;;;;;;;5031912;28;20030;-62
2023/12/03 13:36:00;;;;;;;19.55;11.38;;;;;;;;;;5030974;28;20025;-61
2023/12/03 13:38:25;;;;;;;18.60;11.35;;;;;;;;;;5031925;28;20033;-61
2023/12/03 13:40:51;;;;;;;19.80;10.95;;;;;;;;;;5026482;28;20041;-61
2023/12/03 13:43:16;;;;;;;20.52;11.50;;;;;;;;;;5020744;28;20492;-62
2023/12/03 13:45:41;;;;;;;21.08;11.38;;;;;;;;;;5030805;28;20035;-62
2023/12/03 13:48:07;;;;;;;20.83;11.35;;;;;;;;;;5031590;28;20453;-62
2023/12/03 13:50:34;;;;;;;18.25;10.77;;;;;;;;;;5031698;28;20029;-62
2023/12/03 13:52:59;;;;;;;19.10;10.23;;;;;;;;;;5030689;28;20450;-62
2023/12/03 13:55:24;;;;;;;21.02;11.25;;;;;;;;;;5031555;28;20040;-62
2023/12/03 13:57:50;;;;;;;19.27;10.10;;;;;;;;;;5023322;28;20049;-62
2023/12/03 14:00:16;;;;;;;21.60;11.25;;;;;;;;;;5010323;28;20100;-62
2023/12/03 14:02:41;;;;;;;18.17;9.60;;;;;;;;;;5011367;28;20147;-62
2023/12/03 14:05:10;;;;;;;17.23;9.82;;;;;;;;;;5011845;28;20108;-64
2023/12/03 14:07:35;;;;;;;20.60;10.73;;;;;;;;;;5011454;28;20088;-62
2023/12/03 14:10:01;;;;;;;18.30;10.15;;;;;;;;;;5009636;28;20642;-61
2023/12/03 14:12:27;;;;;;;21.65;11.27;;;;;;;;;;5010501;28;20040;-63
2023/12/03 14:14:52;;;;;;;16.77;9.63;;;;;;;;;;5010818;28;20060;-62